Time;durP1;ratioP1;P1;durP2;ratioP2;P2;SDS_P1;SDS_P2;PMS_P1;PMS_P2;Temp;Humidity;BMP_temperature;BMP_pressure;BME280_temperature;BME280_humidity;BME280_pressure;Samples;Min_cycle;Max_cycle;Signal;HPM_P1;HPM_P2
2020/12/05 00:01:42;;;;;;;6.75;3.22;;;0.90;92.20;;;;;;5025928;28;20032;-72
2020/12/05 00:04:08;;;;;;;9.18;3.78;;;0.90;92.20;;;;;;5031929;28;20025;-73
2020/12/05 00:06:33;;;;;;;6.95;3.90;;;0.90;92.30;;;;;;5029462;28;20488;-73
2020/12/05 00:08:59;;;;;;;9.00;3.28;;;0.90;92.30;;;;;;5036131;28;20030;-73
2020/12/05 00:11:26;;;;;;;7.13;3.28;;;0.90;92.30;;;;;;5026038;28;20104;-73
2020/12/05 00:13:51;;;;;;;6.68;3.67;;;0.90;92.30;;;;;;5024729;28;20018;-73
2020/12/05 00:16:17;;;;;;;5.28;3.15;;;0.80;92.30;;;;;;5017946;28;20036;-73
2020/12/05 00:18:42;;;;;;;6.95;3.20;;;0.80;92.40;;;;;;5029833;28;20084;-73
2020/12/05 00:21:08;;;;;;;6.85;2.75;;;0.80;92.40;;;;;;5036109;28;20538;-73
2020/12/05 00:23:33;;;;;;;5.88;2.67;;;0.80;92.40;;;;;;5026509;28;20053;-73
2020/12/05 00:25:59;;;;;;;5.32;2.58;;;0.70;92.40;;;;;;5018713;28;20124;-73
2020/12/05 00:28:25;;;;;;;5.15;2.92;;;0.70;92.50;;;;;;5034540;28;20032;-73
2020/12/05 00:30:50;;;;;;;8.68;3.05;;;0.60;92.50;;;;;;5037888;28;20479;-73
2020/12/05 00:33:16;;;;;;;6.53;2.85;;;0.60;92.50;;;;;;5016446;28;20025;-73
2020/12/05 00:35:41;;;;;;;5.20;2.75;;;0.50;92.50;;;;;;5029243;28;20025;-73
2020/12/05 00:38:07;;;;;;;6.18;2.63;;;0.50;92.60;;;;;;5054440;28;20026;-73
2020/12/05 00:40:32;;;;;;;5.10;2.40;;;0.40;92.70;;;;;;5012870;28;20053;-73
2020/12/05 00:42:58;;;;;;;5.00;2.35;;;0.40;92.80;;;;;;5012675;28;20504;-73
2020/12/05 00:45:24;;;;;;;6.63;2.65;;;0.50;92.90;;;;;;5027388;28;20556;-73
2020/12/05 00:47:49;;;;;;;5.40;2.38;;;0.50;93.00;;;;;;5032086;28;20072;-73
2020/12/05 00:50:15;;;;;;;4.82;2.33;;;0.60;93.00;;;;;;5031815;28;20038;-73
2020/12/05 00:52:40;;;;;;;8.40;2.80;;;0.70;93.00;;;;;;5030680;28;20025;-73
2020/12/05 00:55:06;;;;;;;6.03;2.50;;;0.70;93.00;;;;;;5028940;28;20021;-73
2020/12/05 00:57:32;;;;;;;5.07;2.50;;;0.80;93.00;;;;;;5029231;28;20033;-73
2020/12/05 00:59:57;;;;;;;5.70;2.38;;;0.90;92.90;;;;;;5030327;28;20025;-73
2020/12/05 01:02:25;;;;;;;6.15;2.25;;;0.90;92.90;;;;;;5029691;28;20025;-73
2020/12/05 01:04:51;;;;;;;8.48;2.05;;;0.90;92.90;;;;;;5022498;28;20096;-73
2020/12/05 01:07:22;;;;;;;5.28;2.60;;;0.90;92.90;;;;;;5019310;28;20037;-73
2020/12/05 01:09:47;;;;;;;6.70;2.33;;;1.00;92.90;;;;;;5021407;28;20104;-73
2020/12/05 01:12:13;;;;;;;6.88;2.75;;;0.90;92.90;;;;;;5029264;28;20454;-73
2020/12/05 01:14:38;;;;;;;5.78;2.47;;;0.90;93.20;;;;;;5027619;28;20553;-73
2020/12/05 01:17:04;;;;;;;3.30;1.70;;;0.90;92.90;;;;;;5029694;28;20036;-73
2020/12/05 01:19:30;;;;;;;5.95;3.15;;;0.80;92.90;;;;;;5027025;28;20024;-73
2020/12/05 01:21:55;;;;;;;8.15;2.28;;;0.80;92.90;;;;;;5032063;28;20394;-73
2020/12/05 01:24:21;;;;;;;4.63;2.15;;;0.70;93.00;;;;;;5029493;28;20021;-73
2020/12/05 01:26:47;;;;;;;4.72;2.10;;;0.70;93.10;;;;;;5029332;28;20409;-73
2020/12/05 01:29:12;;;;;;;4.35;2.10;;;0.70;93.20;;;;;;5032445;28;20037;-73
2020/12/05 01:31:38;;;;;;;8.88;2.53;;;0.70;93.20;;;;;;5031068;28;20419;-73
2020/12/05 01:34:03;;;;;;;5.15;2.75;;;0.70;93.30;;;;;;5029918;28;20034;-73
2020/12/05 01:36:30;;;;;;;6.50;2.40;;;0.70;93.30;;;;;;5030870;28;20061;-73
2020/12/05 01:38:55;;;;;;;5.93;3.15;;;0.70;93.20;;;;;;5020694;28;20105;-73
2020/12/05 01:41:21;;;;;;;10.20;2.85;;;0.70;93.20;;;;;;5020566;28;20124;-73
2020/12/05 01:43:46;;;;;;;8.68;3.33;;;0.70;93.20;;;;;;5031444;28;20459;-73
2020/12/05 01:46:31;;;;;;;7.65;2.80;;;0.60;93.20;;;;;;5023967;28;20042;-73
2020/12/05 01:48:56;;;;;;;4.05;2.13;;;0.60;93.30;;;;;;5021584;28;20403;-72
2020/12/05 01:51:22;;;;;;;5.80;2.42;;;0.50;93.30;;;;;;5027037;28;20033;-73
2020/12/05 01:53:47;;;;;;;4.57;2.50;;;0.50;93.40;;;;;;5030443;28;20830;-72
2020/12/05 01:56:13;;;;;;;4.72;2.35;;;0.50;93.40;;;;;;5022332;28;20501;-72
2020/12/05 01:58:39;;;;;;;6.45;2.50;;;0.50;93.50;;;;;;5025305;28;20022;-72
2020/12/05 02:01:08;;;;;;;5.43;2.65;;;0.50;93.50;;;;;;5027457;28;20030;-72
2020/12/05 02:03:33;;;;;;;5.80;2.45;;;0.60;93.50;;;;;;5025649;28;20586;-72
2020/12/05 02:06:10;;;;;;;4.28;2.50;;;0.60;93.50;;;;;;5056961;28;20045;-72
2020/12/05 02:08:53;;;;;;;6.95;2.80;;;0.60;93.50;;;;;;5030324;28;20392;-72
2020/12/05 02:11:23;;;;;;;6.28;2.85;;;0.60;93.50;;;;;;5026383;28;20030;-72
2020/12/05 02:13:50;;;;;;;5.13;2.75;;;0.50;93.50;;;;;;5035001;28;20037;-72
2020/12/05 02:16:16;;;;;;;10.93;3.70;;;0.60;93.50;;;;;;5031058;28;20022;-72
2020/12/05 02:18:46;;;;;;;6.15;2.15;;;0.50;93.50;;;;;;5022800;28;20021;-72
2020/12/05 02:21:13;;;;;;;4.18;2.13;;;0.50;93.60;;;;;;5019583;28;20391;-72
2020/12/05 02:23:42;;;;;;;5.32;2.22;;;0.60;93.60;;;;;;5034380;28;20040;-72
2020/12/05 02:26:09;;;;;;;6.82;2.80;;;0.50;93.50;;;;;;5034758;28;20036;-72
2020/12/05 02:28:34;;;;;;;5.70;2.95;;;0.50;93.50;;;;;;5034735;28;20557;-72
2020/12/05 02:31:00;;;;;;;6.57;3.70;;;0.50;93.50;;;;;;5038472;28;20033;-72
2020/12/05 02:33:26;;;;;;;4.97;3.85;;;0.50;93.60;;;;;;5033833;28;20104;-72
2020/12/05 02:35:52;;;;;;;10.52;3.70;;;0.50;93.60;;;;;;5029485;28;20195;-72
2020/12/05 02:38:28;;;;;;;5.95;3.20;;;0.50;93.90;;;;;;5035917;28;20498;-72
2020/12/05 02:40:54;;;;;;;8.27;3.78;;;0.50;93.60;;;;;;5033948;28;20025;-72
2020/12/05 02:43:19;;;;;;;7.45;3.50;;;0.50;93.60;;;;;;5028253;28;20029;-72
2020/12/05 02:45:45;;;;;;;7.90;3.40;;;0.50;93.50;;;;;;5028161;28;20079;-72
2020/12/05 02:48:10;;;;;;;5.80;2.78;;;0.40;93.50;;;;;;5034354;28;20443;-73
2020/12/05 02:50:37;;;;;;;5.70;3.10;;;0.40;93.60;;;;;;5050035;28;20396;-72
2020/12/05 02:53:03;;;;;;;7.60;3.53;;;0.30;93.60;;;;;;5017242;28;20034;-73
2020/12/05 02:55:29;;;;;;;8.43;3.90;;;0.30;93.60;;;;;;5028716;28;20033;-72
2020/12/05 02:57:54;;;;;;;8.18;3.90;;;0.30;93.80;;;;;;5032481;28;20383;-73
2020/12/05 03:00:20;;;;;;;10.75;3.60;;;0.30;93.90;;;;;;5032416;28;20079;-72
2020/12/05 03:02:46;;;;;;;5.93;3.03;;;0.30;93.90;;;;;;5018505;28;20033;-72
2020/12/05 03:05:11;;;;;;;7.15;3.40;;;0.30;93.90;;;;;;5029805;28;20030;-73
2020/12/05 03:07:37;;;;;;;6.40;3.97;;;0.30;93.90;;;;;;5039380;28;20125;-73
2020/12/05 03:10:03;;;;;;;6.00;3.40;;;0.40;93.90;;;;;;5032960;28;20033;-73
2020/12/05 03:12:28;;;;;;;10.52;3.88;;;0.40;94.00;;;;;;5032981;28;20434;-72
2020/12/05 03:14:53;;;;;;;6.22;3.42;;;0.50;94.00;;;;;;5026578;28;20093;-73
2020/12/05 03:17:19;;;;;;;10.65;4.40;;;0.50;93.90;;;;;;5034644;28;20026;-72
2020/12/05 03:19:45;;;;;;;9.70;4.13;;;0.50;93.90;;;;;;5024408;28;20025;-73
2020/12/05 03:22:10;;;;;;;8.63;3.85;;;0.50;93.90;;;;;;5033741;28;20061;-72
2020/12/05 03:24:36;;;;;;;7.82;3.90;;;0.60;93.90;;;;;;5028747;28;20373;-73
2020/12/05 03:27:01;;;;;;;8.23;4.15;;;0.60;93.80;;;;;;5032537;28;20048;-73
2020/12/05 03:29:27;;;;;;;5.53;3.33;;;0.70;93.80;;;;;;5026385;28;20034;-73
2020/12/05 03:32:00;;;;;;;10.30;3.55;;;0.70;93.80;;;;;;5029231;28;20056;-73
2020/12/05 03:34:26;;;;;;;6.82;3.33;;;0.70;93.80;;;;;;5027396;28;20033;-72
2020/12/05 03:36:51;;;;;;;5.88;3.50;;;0.70;93.80;;;;;;5020228;28;20022;-73
2020/12/05 03:39:17;;;;;;;5.18;2.92;;;0.70;93.70;;;;;;5033898;28;20067;-73
2020/12/05 03:41:42;;;;;;;6.88;3.38;;;0.70;93.70;;;;;;5025238;28;20033;-72
2020/12/05 03:44:08;;;;;;;8.50;4.15;;;0.70;93.70;;;;;;5022431;28;20036;-73
2020/12/05 03:46:33;;;;;;;5.60;2.70;;;0.70;93.70;;;;;;5034483;28;20045;-73
2020/12/05 03:48:59;;;;;;;8.32;3.00;;;0.70;93.70;;;;;;5032625;28;20056;-72
2020/12/05 03:51:26;;;;;;;7.28;3.22;;;0.70;93.80;;;;;;5031015;28;20068;-72
2020/12/05 03:53:51;;;;;;;5.90;3.15;;;0.70;93.80;;;;;;5034552;28;20029;-73
2020/12/05 03:56:16;;;;;;;6.97;3.58;;;0.70;93.80;;;;;;5024129;28;20034;-72
2020/12/05 03:58:42;;;;;;;7.85;3.67;;;0.70;93.80;;;;;;5028292;28;20026;-72
2020/12/05 04:01:07;;;;;;;10.65;3.00;;;0.70;93.70;;;;;;5035141;28;20479;-72
2020/12/05 04:03:33;;;;;;;6.88;3.47;;;0.70;93.70;;;;;;5042600;28;20029;-72
2020/12/05 04:05:59;;;;;;;10.27;4.00;;;0.70;93.70;;;;;;5019771;28;20072;-72
2020/12/05 04:08:24;;;;;;;5.25;3.40;;;0.60;93.70;;;;;;5029383;28;20056;-72
2020/12/05 04:10:50;;;;;;;8.82;4.18;;;0.60;94.00;;;;;;5030394;28;20036;-73
2020/12/05 04:13:16;;;;;;;7.32;3.40;;;0.50;93.70;;;;;;5032859;28;20105;-72
2020/12/05 04:15:41;;;;;;;7.28;4.07;;;0.50;93.70;;;;;;5022930;28;20479;-72
2020/12/05 04:18:07;;;;;;;8.77;3.92;;;0.40;93.70;;;;;;5022483;28;20030;-72
2020/12/05 04:20:32;;;;;;;11.27;4.55;;;0.40;93.80;;;;;;5024251;28;20045;-72
2020/12/05 04:22:58;;;;;;;9.48;3.45;;;0.30;93.80;;;;;;5042258;28;20022;-72
2020/12/05 04:25:24;;;;;;;6.47;3.35;;;0.30;93.80;;;;;;5017978;28;20101;-72
2020/12/05 04:27:51;;;;;;;6.50;3.55;;;0.30;93.80;;;;;;5027506;28;20022;-72
2020/12/05 04:30:16;;;;;;;6.72;3.95;;;0.20;93.80;;;;;;5028273;28;20072;-72
2020/12/05 04:32:42;;;;;;;8.88;4.40;;;0.10;93.90;;;;;;5026943;28;20570;-72
2020/12/05 04:35:08;;;;;;;4.75;2.85;;;0.10;94.00;;;;;;5019403;28;20026;-72
2020/12/05 04:37:34;;;;;;;9.07;3.60;;;0.10;94.00;;;;;;5033066;28;20094;-72
2020/12/05 04:39:59;;;;;;;10.60;5.38;;;0.00;94.10;;;;;;5027438;28;20021;-71
2020/12/05 04:42:25;;;;;;;10.45;4.15;;;0.10;94.20;;;;;;5032943;28;20036;-73
2020/12/05 04:44:50;;;;;;;10.35;3.97;;;0.00;94.10;;;;;;5030528;28;20507;-73
2020/12/05 04:47:16;;;;;;;9.38;4.20;;;0.10;94.20;;;;;;5031659;28;20132;-73
2020/12/05 04:49:43;;;;;;;6.55;3.80;;;0.00;94.10;;;;;;5024639;28;20036;-73
2020/12/05 04:52:26;;;;;;;9.18;3.90;;;0.00;94.10;;;;;;5040041;28;20060;-73
2020/12/05 04:54:55;;;;;;;;;;;0.00;94.10;;;;;;5037590;28;20477;-73
2020/12/05 04:57:26;;;;;;;6.97;3.22;;;0.00;94.10;;;;;;5022143;28;19932;-73
2020/12/05 04:59:54;;;;;;;7.20;4.43;;;0.00;94.20;;;;;;5029851;28;20108;-73
2020/12/05 05:02:26;;;;;;;9.95;4.22;;;0.00;94.10;;;;;;5033358;28;20515;-73
2020/12/05 05:04:52;;;;;;;6.88;3.97;;;-0.10;94.10;;;;;;5030604;28;20025;-73
2020/12/05 05:07:19;;;;;;;11.15;4.75;;;-0.10;94.10;;;;;;5031137;28;20086;-73
2020/12/05 05:09:48;;;;;;;10.60;4.03;;;-0.10;94.10;;;;;;5023717;28;20048;-73
2020/12/05 05:12:32;;;;;;;6.95;4.45;;;-0.20;94.10;;;;;;5021180;28;20030;-73
2020/12/05 05:14:58;;;;;;;5.10;3.55;;;-0.20;94.00;;;;;;5022065;28;20107;-73
2020/12/05 05:17:24;;;;;;;7.63;4.28;;;-0.30;94.00;;;;;;5017794;28;20018;-73
2020/12/05 05:19:49;;;;;;;7.55;4.05;;;-0.30;94.10;;;;;;5017987;28;20519;-73
2020/12/05 05:22:21;;;;;;;6.45;3.30;;;-0.40;94.10;;;;;;5018624;28;20034;-74
2020/12/05 05:25:00;;;;;;;9.77;3.67;;;-0.40;94.10;;;;;;5018333;28;20017;-73
2020/12/05 05:27:26;;;;;;;8.95;3.83;;;-0.50;94.20;;;;;;5018995;28;20029;-73
2020/12/05 05:29:51;;;;;;;10.85;4.10;;;-0.60;94.30;;;;;;5023192;28;20026;-73
2020/12/05 05:32:27;;;;;;;10.35;4.03;;;-0.50;94.30;;;;;;5020037;28;20398;-72
2020/12/05 05:35:12;;;;;;;8.70;4.57;;;-0.60;94.40;;;;;;5018351;28;20033;-73
2020/12/05 05:37:40;;;;;;;10.63;4.30;;;-0.60;94.40;;;;;;5020519;28;20018;-73
2020/12/05 05:40:08;;;;;;;9.15;4.35;;;-0.60;94.50;;;;;;5026525;28;20037;-73
2020/12/05 05:42:39;;;;;;;8.27;4.25;;;-0.60;94.40;;;;;;5019209;28;20064;-73
2020/12/05 05:45:24;;;;;;;12.10;4.68;;;-0.60;94.70;;;;;;5025122;28;20029;-73
2020/12/05 05:48:00;;;;;;;11.10;5.85;;;-0.50;94.60;;;;;;5031126;28;20112;-72
2020/12/05 05:50:34;;;;;;;10.15;4.70;;;-0.50;94.60;;;;;;5024599;28;20026;-73
2020/12/05 05:53:02;;;;;;;8.38;4.75;;;-0.50;94.60;;;;;;5026159;28;20460;-74
2020/12/05 05:55:47;;;;;;;17.17;6.13;;;-0.40;94.60;;;;;;5027791;28;20034;-74
2020/12/05 05:58:15;;;;;;;13.25;5.63;;;-0.30;94.50;;;;;;5024527;28;20395;-72
2020/12/05 06:00:46;;;;;;;10.48;6.75;;;-0.30;94.50;;;;;;5020110;28;20041;-72
2020/12/05 06:03:23;;;;;;;10.57;6.82;;;-0.30;94.50;;;;;;5024178;28;21002;-72
2020/12/05 06:05:57;;;;;;;9.63;5.28;;;-0.20;94.40;;;;;;5055947;28;20022;-72
2020/12/05 06:08:27;;;;;;;12.85;5.65;;;-0.30;94.30;;;;;;5023206;28;20025;-72
2020/12/05 06:10:57;;;;;;;11.15;5.68;;;-0.30;94.40;;;;;;5025999;28;20051;-72
2020/12/05 06:13:30;;;;;;;14.70;7.25;;;-0.30;94.40;;;;;;5023169;28;20047;-72
2020/12/05 06:15:57;;;;;;;18.20;8.55;;;-0.30;94.50;;;;;;5027537;28;20103;-72
2020/12/05 06:18:23;;;;;;;18.17;8.60;;;-0.30;94.60;;;;;;5029273;28;20025;-72
2020/12/05 06:20:50;;;;;;;14.20;8.25;;;-0.20;94.50;;;;;;5047645;28;20475;-72
2020/12/05 06:23:45;;;;;;;11.82;7.50;;;-0.20;94.50;;;;;;5029606;28;20084;-72
2020/12/05 06:26:18;;;;;;;13.00;8.13;;;-0.20;94.50;;;;;;5044816;28;20038;-73
2020/12/05 06:28:44;;;;;;;13.00;7.95;;;-0.20;94.50;;;;;;5035840;28;20068;-72
2020/12/05 06:31:10;;;;;;;14.75;9.18;;;-0.20;94.50;;;;;;5035783;28;20029;-72
2020/12/05 06:33:39;;;;;;;19.35;9.93;;;-0.10;94.90;;;;;;5025276;28;20105;-72
2020/12/05 06:36:26;;;;;;;17.20;10.73;;;-0.10;94.70;;;;;;5036299;28;20053;-72
2020/12/05 06:39:04;;;;;;;18.20;10.30;;;0.00;94.70;;;;;;5032549;28;20033;-72
2020/12/05 06:41:36;;;;;;;18.85;12.15;;;0.10;94.70;;;;;;5031293;28;20025;-72
2020/12/05 06:44:34;;;;;;;23.15;12.18;;;0.10;94.70;;;;;;5029132;28;20108;-72
2020/12/05 06:47:05;;;;;;;19.13;11.38;;;0.10;94.60;;;;;;5038474;28;20063;-72
2020/12/05 06:49:39;;;;;;;18.70;12.35;;;0.20;94.60;;;;;;5034104;28;20032;-72
2020/12/05 06:52:24;;;;;;;20.27;10.57;;;0.30;94.70;;;;;;5015538;28;20109;-72
2020/12/05 06:54:53;;;;;;;18.60;12.30;;;0.30;94.70;;;;;;5034798;28;20053;-72
2020/12/05 06:57:20;;;;;;;14.93;9.57;;;0.40;94.80;;;;;;5032202;28;20134;-73
2020/12/05 06:59:46;;;;;;;15.50;10.23;;;0.50;94.80;;;;;;5031495;28;20083;-72
2020/12/05 07:02:26;;;;;;;20.80;12.40;;;0.60;94.90;;;;;;5033803;28;20033;-74
2020/12/05 07:05:12;;;;;;;21.80;11.65;;;0.70;94.80;;;;;;5032340;28;20649;-73
2020/12/05 07:07:37;;;;;;;15.02;7.97;;;0.80;94.80;;;;;;5034837;28;20501;-74
2020/12/05 07:10:04;;;;;;;21.15;10.15;;;0.90;94.90;;;;;;5029306;28;20117;-74
2020/12/05 07:12:39;;;;;;;17.75;9.50;;;1.00;94.90;;;;;;5025344;28;20470;-74
2020/12/05 07:15:22;;;;;;;18.10;9.43;;;1.10;94.90;;;;;;5042407;28;20036;-73
2020/12/05 07:17:48;;;;;;;17.60;9.73;;;1.20;94.80;;;;;;5024601;28;20108;-73
2020/12/05 07:20:14;;;;;;;12.90;7.22;;;1.20;94.90;;;;;;5033527;28;20025;-73
2020/12/05 07:22:40;;;;;;;15.45;8.65;;;1.30;94.90;;;;;;5035235;28;20506;-73
2020/12/05 07:25:05;;;;;;;15.77;8.27;;;1.40;94.90;;;;;;5034002;28;20486;-73
2020/12/05 07:27:31;;;;;;;14.43;8.15;;;1.50;94.90;;;;;;5033826;28;20569;-73
2020/12/05 07:29:56;;;;;;;15.23;7.55;;;1.50;94.80;;;;;;5039079;28;20029;-73
2020/12/05 07:32:22;;;;;;;12.27;7.60;;;1.50;94.80;;;;;;5032255;28;20044;-73
2020/12/05 07:34:47;;;;;;;12.85;7.28;;;1.50;94.70;;;;;;5036207;28;20021;-73
2020/12/05 07:37:27;;;;;;;12.45;7.25;;;1.50;94.70;;;;;;5031701;28;20411;-73
2020/12/05 07:39:53;;;;;;;14.73;7.78;;;1.50;94.60;;;;;;5023027;28;20101;-72
2020/12/05 07:42:19;;;;;;;11.20;7.05;;;1.40;94.60;;;;;;5020434;28;20030;-73
2020/12/05 07:44:45;;;;;;;12.30;7.82;;;1.40;94.60;;;;;;5028732;28;20071;-72
2020/12/05 07:47:20;;;;;;;15.70;8.48;;;1.40;94.60;;;;;;5034537;28;20106;-73
2020/12/05 07:49:53;;;;;;;13.52;6.97;;;1.40;94.60;;;;;;5033793;28;20021;-72
2020/12/05 07:52:23;;;;;;;12.40;7.55;;;1.40;94.70;;;;;;5034557;28;20033;-71
2020/12/05 07:54:55;;;;;;;10.65;6.25;;;1.40;94.70;;;;;;5033678;28;20025;-72
2020/12/05 07:57:23;;;;;;;11.38;6.35;;;1.40;94.70;;;;;;5033158;28;20108;-72
2020/12/05 07:59:48;;;;;;;10.57;6.75;;;1.40;94.70;;;;;;5032724;28;20029;-72
2020/12/05 08:02:27;;;;;;;14.10;7.15;;;1.40;94.70;;;;;;5026820;28;20098;-72
2020/12/05 08:04:54;;;;;;;14.02;7.47;;;1.40;94.70;;;;;;5025491;28;20037;-72
2020/12/05 08:07:37;;;;;;;15.38;7.93;;;1.50;94.80;;;;;;5032554;28;20025;-72
2020/12/05 08:10:08;;;;;;;14.25;7.63;;;1.50;94.80;;;;;;5033856;28;20029;-73
2020/12/05 08:13:24;;;;;;;15.07;8.38;;;1.60;94.80;;;;;;5032835;28;20042;-74
2020/12/05 08:16:01;;;;;;;9.68;6.57;;;1.70;94.70;;;;;;5029472;28;20025;-72
2020/12/05 08:18:28;;;;;;;12.95;7.30;;;1.80;94.60;;;;;;5021643;28;20109;-73
2020/12/05 08:20:54;;;;;;;12.13;7.38;;;1.70;94.60;;;;;;5034275;28;20452;-73
2020/12/05 08:23:21;;;;;;;13.60;8.02;;;1.80;94.60;;;;;;5031400;28;20061;-74
2020/12/05 08:25:49;;;;;;;10.52;7.10;;;1.80;94.50;;;;;;5032068;28;20487;-72
2020/12/05 08:28:15;;;;;;;13.13;7.93;;;1.80;94.50;;;;;;5035775;28;20036;-72
2020/12/05 08:30:41;;;;;;;14.18;8.00;;;1.90;94.50;;;;;;5053937;28;20059;-72
2020/12/05 08:33:06;;;;;;;14.30;8.45;;;2.00;94.50;;;;;;5038724;28;20025;-72
2020/12/05 08:35:33;;;;;;;15.55;7.55;;;1.90;94.40;;;;;;5027336;28;20033;-72
2020/12/05 08:38:02;;;;;;;15.93;7.63;;;2.00;94.50;;;;;;5028834;28;20022;-72
2020/12/05 08:40:28;;;;;;;14.15;8.15;;;2.00;94.50;;;;;;5025532;28;20025;-72
2020/12/05 08:42:54;;;;;;;16.02;7.10;;;2.00;94.50;;;;;;5033136;28;20018;-73
2020/12/05 08:45:21;;;;;;;13.43;7.60;;;2.10;94.50;;;;;;5028921;28;20104;-72
2020/12/05 08:47:49;;;;;;;13.95;7.63;;;2.10;94.40;;;;;;5018440;28;20046;-73
2020/12/05 08:50:37;;;;;;;13.50;7.85;;;2.20;94.40;;;;;;5031570;28;20017;-73
2020/12/05 08:53:03;;;;;;;12.98;6.80;;;2.20;94.30;;;;;;5008479;28;20537;-73
2020/12/05 08:55:30;;;;;;;13.93;8.00;;;2.20;94.30;;;;;;5024393;28;20030;-73
2020/12/05 08:58:01;;;;;;;14.38;7.47;;;2.20;94.40;;;;;;5018637;28;20480;-73
2020/12/05 09:00:29;;;;;;;12.88;8.18;;;2.30;94.40;;;;;;5027548;28;20029;-73
2020/12/05 09:02:54;;;;;;;16.63;7.90;;;2.30;94.30;;;;;;5028026;28;20022;-72
2020/12/05 09:05:20;;;;;;;11.35;6.93;;;2.40;94.30;;;;;;5030864;28;20025;-72
2020/12/05 09:07:57;;;;;;;12.23;7.75;;;2.40;94.30;;;;;;5025618;28;20057;-72
2020/12/05 09:10:25;;;;;;;11.70;7.30;;;2.50;94.30;;;;;;5026489;28;20036;-72
2020/12/05 09:12:51;;;;;;;11.20;6.68;;;2.60;94.20;;;;;;5031317;28;20021;-73
2020/12/05 09:15:17;;;;;;;13.35;6.60;;;2.60;94.20;;;;;;5032578;28;20029;-73
2020/12/05 09:17:43;;;;;;;14.38;7.57;;;2.70;94.20;;;;;;5032521;28;20029;-73
2020/12/05 09:20:15;;;;;;;11.48;7.18;;;2.80;94.20;;;;;;5030191;28;20052;-73
2020/12/05 09:22:46;;;;;;;11.38;6.35;;;2.90;94.20;;;;;;5018840;28;20471;-73
2020/12/05 09:25:23;;;;;;;11.63;7.10;;;3.00;94.10;;;;;;5030036;28;20033;-72
2020/12/05 09:27:48;;;;;;;12.25;6.97;;;3.00;94.10;;;;;;5024932;28;20064;-72
2020/12/05 09:30:14;;;;;;;11.02;7.03;;;3.10;94.00;;;;;;5023741;28;20061;-72
2020/12/05 09:32:44;;;;;;;12.27;7.53;;;3.20;93.90;;;;;;5031879;28;20037;-72
2020/12/05 09:35:11;;;;;;;12.98;7.75;;;3.20;93.80;;;;;;5028365;28;20029;-72
2020/12/05 09:37:37;;;;;;;10.48;7.18;;;3.20;93.70;;;;;;5027131;28;20033;-72
2020/12/05 09:40:04;;;;;;;10.60;6.97;;;3.30;93.70;;;;;;5029507;28;20025;-73
2020/12/05 09:42:30;;;;;;;12.15;7.32;;;3.30;93.70;;;;;;5031392;28;20475;-74
2020/12/05 09:44:55;;;;;;;13.60;8.10;;;3.30;93.70;;;;;;5030210;28;20029;-73
2020/12/05 09:47:21;;;;;;;11.48;6.65;;;3.40;93.60;;;;;;5028450;28;20037;-72
2020/12/05 09:49:47;;;;;;;12.75;7.40;;;3.50;93.60;;;;;;5034366;28;20029;-72
2020/12/05 09:52:12;;;;;;;11.63;7.15;;;3.50;93.60;;;;;;5026618;28;20057;-72
2020/12/05 09:54:37;;;;;;;11.35;6.80;;;3.60;93.50;;;;;;5032736;28;20021;-72
2020/12/05 09:57:04;;;;;;;12.57;7.95;;;3.70;93.50;;;;;;5036322;28;20036;-72
2020/12/05 09:59:29;;;;;;;11.60;6.47;;;3.80;93.60;;;;;;5031050;28;20026;-72
2020/12/05 10:01:55;;;;;;;13.93;7.30;;;3.90;93.40;;;;;;5027045;28;20029;-74
2020/12/05 10:04:21;;;;;;;11.80;7.25;;;4.00;93.20;;;;;;5032721;28;20472;-71
2020/12/05 10:06:47;;;;;;;9.80;6.07;;;4.10;93.10;;;;;;5028416;28;20395;-71
2020/12/05 10:09:12;;;;;;;9.75;6.18;;;4.10;93.00;;;;;;5032315;28;20118;-71
2020/12/05 10:11:38;;;;;;;8.25;5.07;;;4.10;93.00;;;;;;5031196;28;20037;-71
2020/12/05 10:14:04;;;;;;;12.63;5.05;;;4.20;93.00;;;;;;5031751;28;20029;-71
2020/12/05 10:16:33;;;;;;;6.80;4.63;;;4.20;93.00;;;;;;5032249;28;20517;-71
2020/12/05 10:18:59;;;;;;;7.18;4.35;;;4.20;92.90;;;;;;5028631;28;20029;-71
2020/12/05 10:21:25;;;;;;;7.07;4.35;;;4.30;92.90;;;;;;5020873;28;20519;-71
2020/12/05 10:23:50;;;;;;;5.28;3.63;;;4.30;92.80;;;;;;5031941;28;20029;-72
2020/12/05 10:26:16;;;;;;;6.00;3.30;;;4.40;92.80;;;;;;5031514;28;20112;-73
2020/12/05 10:28:44;;;;;;;6.07;3.88;;;4.40;92.80;;;;;;5032431;28;20029;-73
2020/12/05 10:31:10;;;;;;;5.05;3.13;;;4.40;92.70;;;;;;5031576;28;20029;-73
2020/12/05 10:33:36;;;;;;;4.03;2.05;;;4.50;92.70;;;;;;5032640;28;20018;-73
2020/12/05 10:36:01;;;;;;;3.92;2.38;;;4.60;92.60;;;;;;5031795;28;20431;-73
2020/12/05 10:38:27;;;;;;;3.60;2.13;;;4.60;92.40;;;;;;5030809;28;20022;-73
2020/12/05 10:40:54;;;;;;;5.60;2.38;;;4.70;92.30;;;;;;5040421;28;20530;-72
2020/12/05 10:43:19;;;;;;;3.72;2.05;;;4.70;92.20;;;;;;5034442;28;20105;-73
2020/12/05 10:45:45;;;;;;;7.00;2.95;;;4.80;92.10;;;;;;5035560;28;20079;-74
2020/12/05 10:48:10;;;;;;;3.88;2.25;;;4.90;92.00;;;;;;5033345;28;20488;-71
2020/12/05 10:50:36;;;;;;;3.83;2.33;;;4.90;91.90;;;;;;5030604;28;20078;-71
2020/12/05 10:53:01;;;;;;;6.70;2.33;;;4.90;91.80;;;;;;5035762;28;20024;-72
2020/12/05 10:55:27;;;;;;;5.25;2.25;;;5.00;91.50;;;;;;5035717;28;20017;-72
2020/12/05 10:57:52;;;;;;;4.55;2.20;;;5.00;91.40;;;;;;5034945;28;20108;-72
2020/12/05 11:00:18;;;;;;;5.53;2.63;;;5.00;91.40;;;;;;5032202;28;20034;-73
2020/12/05 11:02:43;;;;;;;3.72;2.25;;;5.00;91.40;;;;;;5027505;28;20030;-73
2020/12/05 11:05:09;;;;;;;4.93;2.17;;;5.10;91.30;;;;;;5030092;28;22297;-73
2020/12/05 11:07:35;;;;;;;5.07;2.38;;;5.10;91.20;;;;;;5029184;28;20388;-73
2020/12/05 11:10:00;;;;;;;4.25;2.20;;;5.10;91.00;;;;;;5028811;28;20060;-73
2020/12/05 11:12:26;;;;;;;4.97;2.38;;;5.20;91.00;;;;;;5030034;28;20036;-73
2020/12/05 11:14:52;;;;;;;4.53;2.25;;;5.20;90.70;;;;;;5020496;28;20589;-73
2020/12/05 11:17:17;;;;;;;3.80;2.13;;;5.20;90.70;;;;;;5027950;28;20040;-73
2020/12/05 11:19:43;;;;;;;5.32;2.65;;;5.20;90.70;;;;;;5031716;28;20037;-73
2020/12/05 11:22:08;;;;;;;5.13;2.72;;;5.30;90.70;;;;;;5016549;28;20384;-73
2020/12/05 11:24:34;;;;;;;5.60;3.03;;;5.30;90.50;;;;;;5020785;28;20510;-73
2020/12/05 11:26:59;;;;;;;4.53;2.28;;;5.30;90.50;;;;;;5035272;28;20089;-73
2020/12/05 11:29:25;;;;;;;5.15;2.38;;;5.40;90.30;;;;;;5032327;28;20033;-73
2020/12/05 11:31:50;;;;;;;4.60;2.08;;;5.40;90.10;;;;;;5032484;28;20028;-73
2020/12/05 11:34:16;;;;;;;3.85;1.80;;;5.40;89.70;;;;;;5025316;28;20365;-73
2020/12/05 11:36:43;;;;;;;7.43;1.70;;;5.40;89.60;;;;;;5042020;28;20029;-73
2020/12/05 11:39:08;;;;;;;5.70;1.63;;;5.30;89.60;;;;;;5025543;28;20151;-73
2020/12/05 11:41:34;;;;;;;4.18;1.45;;;5.30;89.30;;;;;;5027630;28;20112;-73
2020/12/05 11:44:03;;;;;;;2.67;1.38;;;5.30;88.70;;;;;;5033363;28;20095;-73
2020/12/05 11:46:28;;;;;;;4.50;1.42;;;5.30;88.60;;;;;;5030467;28;20048;-73
2020/12/05 11:48:54;;;;;;;4.22;1.70;;;5.30;88.30;;;;;;5030217;28;20025;-72
2020/12/05 11:51:23;;;;;;;3.17;1.63;;;5.30;88.20;;;;;;5030321;28;20037;-71
2020/12/05 11:53:49;;;;;;;5.25;1.83;;;5.20;88.00;;;;;;5034074;28;20032;-71
2020/12/05 11:56:14;;;;;;;4.22;1.67;;;5.20;88.00;;;;;;5016970;28;20022;-71
2020/12/05 11:58:40;;;;;;;2.80;1.42;;;5.20;87.90;;;;;;5027188;28;20037;-72
2020/12/05 12:01:05;;;;;;;5.18;2.13;;;5.30;87.80;;;;;;5031166;28;20041;-71
2020/12/05 12:03:32;;;;;;;3.78;1.70;;;5.30;87.70;;;;;;5051614;28;20111;-73
2020/12/05 12:05:57;;;;;;;3.72;1.50;;;5.40;87.60;;;;;;5030675;28;20032;-72
2020/12/05 12:08:23;;;;;;;4.75;2.25;;;5.50;87.40;;;;;;5035101;28;20037;-72
2020/12/05 12:10:48;;;;;;;3.60;1.40;;;5.50;87.90;;;;;;5033151;28;20025;-72
2020/12/05 12:13:13;;;;;;;3.50;1.50;;;5.60;87.30;;;;;;5020331;28;20034;-72
2020/12/05 12:15:39;;;;;;;3.67;1.73;;;5.60;87.20;;;;;;5026222;28;20105;-72
2020/12/05 12:18:05;;;;;;;4.00;1.50;;;5.70;86.90;;;;;;5028169;28;20026;-71
2020/12/05 12:20:30;;;;;;;5.38;1.65;;;5.70;86.30;;;;;;5030068;28;20100;-72
2020/12/05 12:22:56;;;;;;;3.47;1.98;;;5.80;86.60;;;;;;5031344;28;20049;-72
2020/12/05 12:25:21;;;;;;;4.20;1.88;;;5.80;86.60;;;;;;5027017;28;20049;-72
2020/12/05 12:27:47;;;;;;;2.88;1.52;;;5.90;86.00;;;;;;5015384;28;20026;-71
2020/12/05 12:30:12;;;;;;;2.33;1.23;;;5.90;85.90;;;;;;5026212;28;20124;-72
2020/12/05 12:32:38;;;;;;;3.75;1.55;;;5.90;85.40;;;;;;5018183;28;20088;-72
2020/12/05 12:35:03;;;;;;;3.95;1.83;;;5.90;85.10;;;;;;5038820;28;20014;-72
2020/12/05 12:37:29;;;;;;;4.95;1.80;;;5.90;85.20;;;;;;5019839;28;20037;-72
2020/12/05 12:39:54;;;;;;;6.00;1.85;;;5.90;85.10;;;;;;5020425;28;20030;-72
2020/12/05 12:42:25;;;;;;;6.28;1.70;;;5.80;85.30;;;;;;5021793;28;20113;-72
2020/12/05 12:44:50;;;;;;;2.63;1.60;;;5.80;85.40;;;;;;5040726;28;20030;-72
2020/12/05 12:47:36;;;;;;;5.40;1.92;;;5.90;85.80;;;;;;5034395;28;20110;-72
2020/12/05 12:50:03;;;;;;;4.15;1.80;;;6.00;85.70;;;;;;5033709;28;20513;-72
2020/12/05 12:52:28;;;;;;;3.72;2.13;;;6.10;85.10;;;;;;5021408;28;20452;-72
2020/12/05 12:54:54;;;;;;;2.95;1.77;;;6.00;85.00;;;;;;5022137;28;20029;-72
2020/12/05 12:57:21;;;;;;;4.00;1.63;;;5.90;85.30;;;;;;5029362;28;20021;-73